createdAt,value
2023-04-10T00:02:06.432Z,18.85
2023-04-10T00:05:10.125Z,16.42
2023-04-10T00:08:12.074Z,18.15
2023-04-10T00:11:13.802Z,16.63
2023-04-10T00:14:15.693Z,16.38
2023-04-10T00:17:17.393Z,14.73
2023-04-10T00:20:20.657Z,15.43
2023-04-10T00:23:22.325Z,15.82
2023-04-10T00:26:24.055Z,15.75
2023-04-10T00:29:25.717Z,14.45
2023-04-10T00:32:27.727Z,15.52
2023-04-10T00:35:30.759Z,14.68
2023-04-10T00:38:32.676Z,15.38
2023-04-10T00:41:34.342Z,14.02
2023-04-10T00:44:36.024Z,14.45
2023-04-10T00:47:37.985Z,15.05
2023-04-10T00:50:41.075Z,14.07
2023-04-10T00:53:42.736Z,15.57
2023-04-10T00:56:45.204Z,13.77
2023-04-10T00:59:46.972Z,13.77
2023-04-10T01:02:49.176Z,14.63
2023-04-10T01:06:02.214Z,16.08
2023-04-10T01:09:10.389Z,15.15
2023-04-10T01:12:28.141Z,16.13
2023-04-10T01:15:37.427Z,16.27
2023-04-10T01:18:44.215Z,17.42
2023-04-10T01:21:48.764Z,16.48
2023-04-10T01:25:02.475Z,15.55
2023-04-10T01:28:24.794Z,16.55
2023-04-10T01:31:34.640Z,14.63
2023-04-10T01:34:41.073Z,14.43
2023-04-10T01:37:46.341Z,14.98
2023-04-10T01:40:52.335Z,17.40
2023-04-10T01:43:56.164Z,15.02
2023-04-10T01:47:00.954Z,16.02
2023-04-10T01:50:04.256Z,15.27
2023-04-10T01:53:07.361Z,14.88
2023-04-10T01:56:09.365Z,14.73
2023-04-10T01:59:11.845Z,15.15
2023-04-10T02:02:14.944Z,15.07
2023-04-10T02:05:17.227Z,14.50
2023-04-10T02:08:26.458Z,14.23
2023-04-10T02:11:37.696Z,13.30
2023-04-10T02:14:43.855Z,14.73
2023-04-10T02:17:48.971Z,14.00
2023-04-10T02:20:50.701Z,12.63
2023-04-10T02:23:52.832Z,14.82
2023-04-10T02:26:54.742Z,13.70
2023-04-10T02:29:56.884Z,13.68
2023-04-10T02:32:59.979Z,13.88
2023-04-10T02:36:01.772Z,15.10
2023-04-10T02:39:03.892Z,15.23
2023-04-10T02:42:05.587Z,13.55
2023-04-10T02:45:08.647Z,13.35
2023-04-10T02:48:11.703Z,13.25
2023-04-10T02:51:13.462Z,15.15
2023-04-10T02:54:15.167Z,15.18
2023-04-10T02:57:16.876Z,16.25
2023-04-10T03:00:18.715Z,16.25
2023-04-10T03:03:21.929Z,14.98
2023-04-10T03:06:23.735Z,14.20
2023-04-10T03:09:25.657Z,12.98
2023-04-10T03:12:27.328Z,14.18
2023-04-10T03:15:29.018Z,14.63
2023-04-10T03:18:32.062Z,14.63
2023-04-10T03:21:33.720Z,14.05
2023-04-10T03:24:35.398Z,13.60
2023-04-10T03:27:38.959Z,12.85
2023-04-10T03:30:40.868Z,15.90
2023-04-10T03:33:44.062Z,22.52
2023-04-10T03:36:45.850Z,29.70
2023-04-10T03:39:47.814Z,28.45
2023-04-10T03:42:49.444Z,25.40
2023-04-10T03:45:51.075Z,24.58
2023-04-10T03:48:54.293Z,21.73
2023-04-10T03:51:56.076Z,19.05
2023-04-10T03:54:58.190Z,15.45
2023-04-10T03:57:59.859Z,16.08
2023-04-10T04:01:01.920Z,18.63
2023-04-10T04:04:05.105Z,17.48
2023-04-10T04:07:06.897Z,16.02
2023-04-10T04:10:08.886Z,14.45
2023-04-10T04:13:10.897Z,13.57
2023-04-10T04:16:12.711Z,14.18
2023-04-10T04:19:15.833Z,12.40
2023-04-10T04:22:17.643Z,13.15
2023-04-10T04:25:19.689Z,12.82
2023-04-10T04:28:21.419Z,13.90
2023-04-10T04:31:23.072Z,13.98
2023-04-10T04:34:26.056Z,13.18
2023-04-10T04:37:27.661Z,12.75
2023-04-10T04:40:29.297Z,12.52
2023-04-10T04:43:30.955Z,11.75
2023-04-10T04:46:32.746Z,13.35
2023-04-10T04:49:35.851Z,11.73
2023-04-10T04:52:37.662Z,11.55
2023-04-10T04:55:39.367Z,13.32
2023-04-10T04:58:41.069Z,12.77
2023-04-10T05:01:42.817Z,11.82
2023-04-10T05:04:46.179Z,13.00
2023-04-10T05:07:48.067Z,13.82
2023-04-10T05:10:49.744Z,14.77
2023-04-10T05:13:51.463Z,12.88
2023-04-10T05:16:53.165Z,12.48
2023-04-10T05:19:56.150Z,13.02
2023-04-10T05:22:57.976Z,12.45
2023-04-10T05:25:59.876Z,12.43
2023-04-10T05:29:01.787Z,12.35
2023-04-10T05:32:03.699Z,12.75
2023-04-10T05:35:08.019Z,11.55
2023-04-10T05:38:10.197Z,12.10
2023-04-10T05:41:11.928Z,12.48
2023-04-10T05:44:13.616Z,10.98
2023-04-10T05:47:15.538Z,9.38
2023-04-10T05:50:18.588Z,10.23
2023-04-10T05:53:21.010Z,10.07
2023-04-10T05:56:22.999Z,9.35
2023-04-10T05:59:24.768Z,8.60
2023-04-10T06:02:26.650Z,8.80
2023-04-10T06:05:30.022Z,9.32
2023-04-10T06:08:31.812Z,9.18
2023-04-10T06:11:33.715Z,9.18
2023-04-10T06:14:35.693Z,8.57
2023-04-10T06:17:41.989Z,8.65
2023-04-10T06:20:45.256Z,9.25
2023-04-10T06:23:47.016Z,8.55
2023-04-10T06:26:48.653Z,9.40
2023-04-10T06:29:50.702Z,8.82
2023-04-10T06:32:53.185Z,9.18
2023-04-10T06:35:56.381Z,9.73
2023-04-10T06:38:58.113Z,8.95
2023-04-10T06:42:01.314Z,8.40
2023-04-10T06:45:04.131Z,8.13
2023-04-10T06:48:06.635Z,7.93
2023-04-10T06:51:09.727Z,8.27
2023-04-10T06:54:11.518Z,7.97
2023-04-10T06:57:13.236Z,7.78
2023-04-10T07:00:15.649Z,8.40
2023-04-10T07:03:17.892Z,9.18
2023-04-10T07:06:21.118Z,8.18
2023-04-10T07:09:23.164Z,8.27
2023-04-10T07:12:24.812Z,8.93
2023-04-10T07:15:26.433Z,8.10
2023-04-10T07:18:28.394Z,8.65
2023-04-10T07:21:31.680Z,8.30
2023-04-10T07:24:33.378Z,9.20
2023-04-10T07:27:35.312Z,9.30
2023-04-10T07:30:36.962Z,8.20
2023-04-10T07:33:38.926Z,7.80
2023-04-10T07:36:41.979Z,8.23
2023-04-10T07:39:43.723Z,7.65
2023-04-10T07:42:46.167Z,7.88
2023-04-10T07:45:48.022Z,8.40
2023-04-10T07:48:49.985Z,7.47
2023-04-10T07:51:53.311Z,8.75
2023-04-10T07:54:55.258Z,7.50
2023-04-10T07:57:56.919Z,8.07
2023-04-10T08:00:59.037Z,6.82
2023-04-10T08:04:02.098Z,8.25
2023-04-10T08:07:06.867Z,6.78
2023-04-10T08:10:09.787Z,8.20
2023-04-10T08:13:11.717Z,6.43
2023-04-10T08:16:13.581Z,7.25
2023-04-10T08:19:15.524Z,6.40
2023-04-10T08:22:18.523Z,6.95
2023-04-10T08:25:20.430Z,7.07
2023-04-10T08:28:22.412Z,6.78
2023-04-10T08:31:25.499Z,6.35
2023-04-10T08:34:27.207Z,6.53
2023-04-10T08:37:30.347Z,6.97
2023-04-10T08:40:32.036Z,6.95
2023-04-10T08:43:34.059Z,4.60
2023-04-10T08:46:37.052Z,5.97
2023-04-10T08:49:45.742Z,5.45
2023-04-10T08:52:52.024Z,5.68
2023-04-10T08:55:53.728Z,4.25
2023-04-10T08:58:55.752Z,4.18
2023-04-10T09:01:57.946Z,4.65
2023-04-10T09:05:02.839Z,5.68
2023-04-10T09:08:07.730Z,5.63
2023-04-10T09:11:09.390Z,5.93
2023-04-10T09:14:20.540Z,5.88
2023-04-10T09:17:23.611Z,5.95
2023-04-10T09:20:26.439Z,6.88
2023-04-10T09:23:29.484Z,6.03
2023-04-10T09:26:32.401Z,6.82
2023-04-10T09:29:42.509Z,6.25
2023-04-10T09:32:45.710Z,5.95
2023-04-10T09:35:47.437Z,6.50
2023-04-10T09:38:54.325Z,5.93
2023-04-10T09:41:55.973Z,5.57
2023-04-10T09:44:58.026Z,6.13
2023-04-10T09:48:05.252Z,6.72
2023-04-10T09:51:07.421Z,6.45
2023-04-10T09:54:10.448Z,6.60
2023-04-10T09:57:15.919Z,7.40
2023-04-10T10:00:17.917Z,8.02
2023-04-10T10:03:20.129Z,7.35
2023-04-10T10:06:22.753Z,7.55
2023-04-10T10:09:27.738Z,8.05
2023-04-10T10:12:35.667Z,7.45
2023-04-10T10:15:44.696Z,6.80
2023-04-10T10:18:54.890Z,7.63
2023-04-10T10:22:00.418Z,6.95
2023-04-10T10:25:04.892Z,6.70
2023-04-10T10:28:07.416Z,6.97
2023-04-10T10:31:10.233Z,7.47
2023-04-10T10:34:11.963Z,7.43
2023-04-10T10:37:14.158Z,7.53
2023-04-10T10:40:22.867Z,6.85
2023-04-10T10:43:31.587Z,6.57
2023-04-10T10:46:37.938Z,7.38
2023-04-10T10:49:55.575Z,6.75
2023-04-10T10:52:57.380Z,6.68
2023-04-10T10:56:34.481Z,7.43
2023-04-10T10:59:54.063Z,6.78
2023-04-10T11:03:28.420Z,6.50
2023-04-10T11:06:50.165Z,7.00
2023-04-10T11:09:53.104Z,7.35
2023-04-10T11:13:18.273Z,6.85
2023-04-10T11:16:20.929Z,6.80
2023-04-10T11:19:23.896Z,6.47
2023-04-10T11:22:26.175Z,7.18
2023-04-10T11:25:46.557Z,7.20
2023-04-10T11:28:49.757Z,6.50
2023-04-10T11:31:56.459Z,6.88
2023-04-10T11:34:58.362Z,6.82
2023-04-10T11:38:13.546Z,6.07
2023-04-10T11:41:15.214Z,6.25
2023-04-10T11:44:26.504Z,6.20
2023-04-10T11:47:28.312Z,7.65
2023-04-10T11:50:30.105Z,6.35
2023-04-10T11:53:31.809Z,6.00
2023-04-10T11:56:33.850Z,6.75
2023-04-10T11:59:36.991Z,6.57
2023-04-10T12:02:51.059Z,6.05
2023-04-10T12:05:52.835Z,6.43
2023-04-10T12:08:55.094Z,8.57
2023-04-10T12:11:59.871Z,6.47
2023-04-10T12:15:03.300Z,7.75
2023-04-10T12:18:05.027Z,7.30
2023-04-10T12:21:08.655Z,6.85
2023-04-10T12:24:11.000Z,6.70
2023-04-10T12:27:16.438Z,6.88
2023-04-10T12:30:20.038Z,6.10
2023-04-10T12:36:24.898Z,6.82
2023-04-10T12:39:26.565Z,5.50
2023-04-10T12:42:28.274Z,5.32
2023-04-10T12:45:44.134Z,4.97
2023-04-10T12:48:45.823Z,4.85
2023-04-10T12:51:49.036Z,4.30
2023-04-10T12:54:50.677Z,4.88
2023-04-10T12:57:52.389Z,4.25
2023-04-10T13:00:55.615Z,3.95
2023-04-10T13:03:58.504Z,4.13
2023-04-10T13:07:00.194Z,4.50
2023-04-10T13:10:02.104Z,4.30
2023-04-10T13:13:04.472Z,4.60
2023-04-10T13:16:08.718Z,4.90
2023-04-10T13:19:10.416Z,4.22
2023-04-10T13:22:12.433Z,4.78
2023-04-10T13:25:14.119Z,5.22
2023-04-10T13:28:16.155Z,6.60
2023-04-10T13:31:19.289Z,9.07
2023-04-10T13:34:21.000Z,7.38
2023-04-10T13:37:22.706Z,6.35
2023-04-10T13:40:24.660Z,15.60
2023-04-10T13:43:26.556Z,6.20
2023-04-10T13:46:29.627Z,6.10
2023-04-10T13:49:31.631Z,9.35
2023-04-10T13:52:34.545Z,6.88
2023-04-10T13:55:36.267Z,13.85
2023-04-10T13:58:38.191Z,4.40
2023-04-10T14:01:41.384Z,6.07
2023-04-10T14:04:43.346Z,5.28
2023-04-10T14:07:45.060Z,4.00
2023-04-10T14:10:47.418Z,5.68
2023-04-10T14:13:49.168Z,5.22
2023-04-10T14:16:52.253Z,5.07
2023-04-10T14:19:53.979Z,5.65
2023-04-10T14:22:55.898Z,3.97
2023-04-10T14:25:57.596Z,6.18
2023-04-10T14:28:59.302Z,4.65
2023-04-10T14:32:02.345Z,5.85
2023-04-10T14:35:04.490Z,4.78
2023-04-10T14:38:06.486Z,4.45
2023-04-10T14:41:08.483Z,4.47
2023-04-10T14:44:10.192Z,4.80
2023-04-10T14:47:13.201Z,4.97
2023-04-10T14:50:14.809Z,4.93
2023-04-10T14:53:16.475Z,4.90
2023-04-10T14:56:18.120Z,5.00
2023-04-10T14:59:19.790Z,4.82
2023-04-10T15:02:23.228Z,4.55
2023-04-10T15:05:26.089Z,4.13
2023-04-10T15:08:28.048Z,4.53
2023-04-10T15:11:29.693Z,4.32
2023-04-10T15:14:31.359Z,4.15
2023-04-10T15:17:34.447Z,4.80
2023-04-10T15:20:36.093Z,4.50
2023-04-10T15:23:37.991Z,4.78
2023-04-10T15:26:43.446Z,4.63
2023-04-10T15:29:45.094Z,4.45
2023-04-10T15:32:48.507Z,5.05
2023-04-10T15:35:50.402Z,5.40
2023-04-10T15:38:52.565Z,4.95
2023-04-10T15:41:54.498Z,5.13
2023-04-10T15:44:56.106Z,5.10
2023-04-10T15:47:59.166Z,4.93
2023-04-10T15:51:04.035Z,5.00
2023-04-10T15:54:05.808Z,4.70
2023-04-10T15:57:07.474Z,6.57
2023-04-10T16:00:10.426Z,5.90
2023-04-10T16:03:13.861Z,5.15
2023-04-10T16:09:25.418Z,4.70
2023-04-10T16:12:28.027Z,4.97
2023-04-10T16:15:30.173Z,4.85
2023-04-10T16:18:33.219Z,5.18
2023-04-10T16:21:35.159Z,4.43
2023-04-10T16:24:36.829Z,4.88
2023-04-10T16:27:38.659Z,5.50
2023-04-10T16:30:40.602Z,5.07
2023-04-10T16:33:43.837Z,5.78
2023-04-10T16:36:46.047Z,4.70
2023-04-10T16:39:48.020Z,5.60
2023-04-10T16:42:49.720Z,5.07
2023-04-10T16:45:54.858Z,4.68
2023-04-10T16:48:58.104Z,4.93
2023-04-10T16:51:59.902Z,4.72
2023-04-10T16:55:01.887Z,5.32
2023-04-10T16:58:03.917Z,4.88
2023-04-10T17:01:16.699Z,5.53
2023-04-10T17:04:19.966Z,6.20
2023-04-10T17:07:21.638Z,6.50
2023-04-10T17:10:23.420Z,5.07
2023-04-10T17:13:25.434Z,5.00
2023-04-10T17:16:27.518Z,5.70
2023-04-10T17:19:30.731Z,4.80
2023-04-10T17:22:32.689Z,5.00
2023-04-10T17:25:38.851Z,4.68
2023-04-10T17:28:41.716Z,4.90
2023-04-10T17:31:43.500Z,5.25
2023-04-10T17:34:46.983Z,4.85
2023-04-10T17:37:49.027Z,5.32
2023-04-10T17:40:51.114Z,6.15
2023-04-10T17:43:53.732Z,6.10
2023-04-10T17:46:55.855Z,6.43
2023-04-10T17:49:59.055Z,6.38
2023-04-10T17:53:01.468Z,6.18
2023-04-10T17:56:03.727Z,6.50
2023-04-10T17:59:05.666Z,7.28
2023-04-10T18:02:07.606Z,7.18
2023-04-10T18:05:11.116Z,7.88
2023-04-10T18:08:13.277Z,9.70
2023-04-10T18:11:15.498Z,8.93
2023-04-10T18:14:17.988Z,7.57
2023-04-10T18:17:20.246Z,7.72
2023-04-10T18:20:23.322Z,7.85
2023-04-10T18:23:25.414Z,8.50
2023-04-10T18:26:29.063Z,8.80
2023-04-10T18:32:33.104Z,12.85
2023-04-10T18:35:36.164Z,13.48
2023-04-10T18:38:40.904Z,13.82
2023-04-10T18:41:42.987Z,12.32
2023-04-10T18:44:45.378Z,11.30
2023-04-10T18:47:47.285Z,11.10
2023-04-10T18:50:53.419Z,7.00
2023-04-10T18:53:56.265Z,8.73
2023-04-10T18:56:58.258Z,8.68
2023-04-10T19:00:00.462Z,7.68
2023-04-10T19:03:03.180Z,6.80
2023-04-10T19:06:07.375Z,6.07
2023-04-10T19:09:09.204Z,7.07
2023-04-10T19:12:12.311Z,7.05
2023-04-10T19:15:14.341Z,7.03
2023-04-10T19:18:16.672Z,7.55
2023-04-10T19:21:20.415Z,7.00
2023-04-10T19:27:23.971Z,6.45
2023-04-10T19:30:26.098Z,7.47
2023-04-10T19:33:27.905Z,6.72
2023-04-10T19:36:30.988Z,6.97
2023-04-10T19:39:32.656Z,9.88
2023-04-10T19:42:34.448Z,11.60
2023-04-10T19:45:36.782Z,11.75
2023-04-10T19:48:38.882Z,11.45
2023-04-10T19:51:42.510Z,11.23
2023-04-10T19:57:46.701Z,12.13
2023-04-10T20:00:48.841Z,11.95
2023-04-10T20:03:50.978Z,12.63
2023-04-10T20:06:54.465Z,11.68
2023-04-10T20:09:56.272Z,13.20
2023-04-10T20:12:58.222Z,35.13
2023-04-10T20:16:00.170Z,50.08
2023-04-10T20:19:01.904Z,30.63
2023-04-10T20:22:04.952Z,33.20
2023-04-10T20:25:07.893Z,17.42
2023-04-10T20:28:09.507Z,16.42
2023-04-10T20:31:12.664Z,14.73
2023-04-10T20:34:14.431Z,14.20
2023-04-10T20:37:17.566Z,13.57
2023-04-10T20:40:19.473Z,15.07
2023-04-10T20:43:21.587Z,14.20
2023-04-10T20:46:23.248Z,13.65
2023-04-10T20:49:25.023Z,13.90
2023-04-10T20:52:28.386Z,14.52
2023-04-10T20:55:30.116Z,13.88
2023-04-10T20:58:31.792Z,15.15
2023-04-10T21:01:34.554Z,15.85
2023-04-10T21:04:36.513Z,15.63
2023-04-10T21:07:39.681Z,14.20
2023-04-10T21:10:41.625Z,13.43
2023-04-10T21:13:43.536Z,13.05
2023-04-10T21:16:45.282Z,15.20
2023-04-10T21:19:47.235Z,13.52
2023-04-10T21:22:50.493Z,12.38
2023-04-10T21:25:52.236Z,11.82
2023-04-10T21:28:54.494Z,12.32
2023-04-10T21:31:56.726Z,11.75
2023-04-10T21:34:58.776Z,11.00
2023-04-10T21:38:02.488Z,12.07
2023-04-10T21:41:04.530Z,12.57
2023-04-10T21:44:06.629Z,11.57
2023-04-10T21:47:08.273Z,12.30
2023-04-10T21:50:10.551Z,13.02
2023-04-10T21:53:13.726Z,14.88
2023-04-10T21:56:15.479Z,13.27
2023-04-10T21:59:17.384Z,15.02
2023-04-10T22:02:19.427Z,13.45
2023-04-10T22:05:21.233Z,13.75
2023-04-10T22:08:24.332Z,14.95
2023-04-10T22:11:26.130Z,14.88
2023-04-10T22:14:28.320Z,12.57
2023-04-10T22:17:30.199Z,13.70
2023-04-10T22:20:31.926Z,12.82
2023-04-10T22:23:34.971Z,14.10
2023-04-10T22:26:36.690Z,14.30
2023-04-10T22:29:38.307Z,13.00
2023-04-10T22:32:40.062Z,11.85
2023-04-10T22:35:41.822Z,12.70
2023-04-10T22:38:44.870Z,11.35
2023-04-10T22:41:46.558Z,12.63
2023-04-10T22:44:48.235Z,10.57
2023-04-10T22:47:49.959Z,11.07
2023-04-10T22:50:51.620Z,11.15
2023-04-10T22:53:54.630Z,11.10
2023-04-10T22:56:57.020Z,11.60
2023-04-10T23:00:00.485Z,11.73
2023-04-10T23:06:04.643Z,11.23
2023-04-10T23:09:07.690Z,11.75
2023-04-10T23:12:09.546Z,14.77
2023-04-10T23:15:11.366Z,12.88
2023-04-10T23:18:13.180Z,13.25
2023-04-10T23:21:14.898Z,13.23
2023-04-10T23:24:17.906Z,12.73
2023-04-10T23:27:19.498Z,11.90
2023-04-10T23:30:21.378Z,12.80
2023-04-10T23:33:23.236Z,13.30
2023-04-10T23:36:25.122Z,14.18
2023-04-10T23:39:28.485Z,14.43
2023-04-10T23:42:30.109Z,13.82
2023-04-10T23:45:31.994Z,13.73
2023-04-10T23:48:33.645Z,13.13
2023-04-10T23:51:37.581Z,13.05
2023-04-10T23:54:40.845Z,12.20
2023-04-10T23:57:42.775Z,12.57
